createdAt,value
2023-03-15T00:03:12.075Z,97514.23
2023-03-15T00:13:37.905Z,97560.16
2023-03-15T00:24:04.533Z,97598.98
2023-03-15T00:34:30.240Z,97643.16
2023-03-15T00:44:56.798Z,97672.00
2023-03-15T00:55:23.031Z,97709.66
2023-03-15T01:05:48.451Z,97726.98
2023-03-15T01:16:15.935Z,97745.08
2023-03-15T01:26:42.128Z,97766.13
2023-03-15T01:37:07.809Z,97770.05
2023-03-15T01:47:33.323Z,97783.70
2023-03-15T01:58:02.159Z,97787.33
2023-03-15T02:08:32.899Z,97781.67
2023-03-15T02:18:58.666Z,97799.59
2023-03-15T02:29:25.486Z,97818.34
2023-03-15T02:39:51.444Z,97834.89
2023-03-15T02:50:17.460Z,97855.07
2023-03-15T03:00:43.151Z,97861.45
2023-03-15T03:11:09.507Z,97854.73
2023-03-15T03:21:35.424Z,97851.13
2023-03-15T03:32:01.713Z,97880.06
2023-03-15T03:42:27.755Z,97906.23
2023-03-15T03:52:53.543Z,97926.58
2023-03-15T04:03:19.578Z,97951.37
2023-03-15T04:13:45.940Z,97976.98
2023-03-15T04:24:11.974Z,97976.64
2023-03-15T04:34:39.053Z,97973.92
2023-03-15T04:45:05.570Z,97979.77
2023-03-15T04:55:31.101Z,97987.16
2023-03-15T05:05:56.834Z,98000.88
2023-03-15T05:16:22.774Z,98009.00
2023-03-15T05:26:48.591Z,98023.69
2023-03-15T05:37:13.950Z,98020.25
2023-03-15T05:47:39.659Z,98034.57
2023-03-15T05:58:04.954Z,98046.25
2023-03-15T06:08:30.638Z,98062.95
2023-03-15T06:18:56.694Z,98088.48
2023-03-15T06:29:22.408Z,98108.47
2023-03-15T06:39:48.568Z,98118.98
2023-03-15T06:50:15.255Z,98152.71
2023-03-15T07:00:41.899Z,98173.80
2023-03-15T07:11:08.407Z,98179.18
2023-03-15T07:21:34.200Z,98190.42
2023-03-15T07:32:01.519Z,98200.34
2023-03-15T07:42:26.870Z,98205.84
2023-03-15T07:52:52.526Z,98234.16
2023-03-15T08:03:27.738Z,98231.45
2023-03-15T08:13:53.743Z,98244.17
2023-03-15T08:24:19.236Z,98268.30
2023-03-15T08:34:45.565Z,98282.94
2023-03-15T08:45:12.694Z,98279.05
2023-03-15T08:55:38.747Z,98296.67
2023-03-15T09:06:04.623Z,98301.92
2023-03-15T09:16:31.358Z,98316.64
2023-03-15T09:26:57.097Z,98323.52
2023-03-15T09:37:22.985Z,98314.89
2023-03-15T09:47:58.294Z,98317.63
2023-03-15T09:58:29.538Z,98316.63
2023-03-15T10:08:59.706Z,98326.17
2023-03-15T10:19:33.466Z,98337.53
2023-03-15T10:30:01.263Z,98345.30
2023-03-15T10:40:47.343Z,98357.95
2023-03-15T10:51:22.461Z,98361.20
2023-03-15T11:01:50.281Z,98362.14
2023-03-15T11:12:25.737Z,98365.46
2023-03-15T11:22:52.972Z,98365.11
2023-03-15T11:33:33.596Z,98363.91
2023-03-15T11:44:11.416Z,98365.84
2023-03-15T11:54:37.660Z,98371.54
2023-03-15T12:05:17.595Z,98363.09
2023-03-15T12:15:48.885Z,98369.67
2023-03-15T12:26:26.067Z,98368.12
2023-03-15T12:36:57.645Z,98372.79
2023-03-15T12:47:23.566Z,98384.16
2023-03-15T12:57:54.092Z,98395.55
2023-03-15T13:08:25.744Z,98396.73
2023-03-15T13:18:59.656Z,98404.50
2023-03-15T13:29:31.026Z,98402.13
2023-03-15T13:40:01.052Z,98417.85
2023-03-15T13:50:27.015Z,98437.20
2023-03-15T14:00:59.638Z,98448.59
2023-03-15T14:11:38.540Z,98452.19
2023-03-15T14:22:14.145Z,98456.70
2023-03-15T14:32:52.359Z,98456.55
2023-03-15T14:43:18.052Z,98454.48
2023-03-15T14:53:44.587Z,98459.15
2023-03-15T15:04:12.280Z,98456.73
2023-03-15T15:14:38.143Z,98457.30
2023-03-15T15:25:04.360Z,98471.79
2023-03-15T15:35:30.926Z,98472.26
2023-03-15T15:45:56.888Z,98482.92
2023-03-15T15:56:24.270Z,98476.05
2023-03-15T16:06:55.183Z,98487.67
2023-03-15T16:17:22.883Z,98491.35
2023-03-15T16:27:48.700Z,98498.27
2023-03-15T16:38:24.267Z,98500.91
2023-03-15T16:48:50.345Z,98504.23
2023-03-15T16:59:18.772Z,98507.00
2023-03-15T17:09:46.845Z,98520.84
2023-03-15T17:20:15.124Z,98541.41
2023-03-15T17:30:41.176Z,98548.84
2023-03-15T17:41:08.102Z,98564.73
2023-03-15T17:51:35.909Z,98579.90
2023-03-15T18:02:01.927Z,98592.50
2023-03-15T18:12:27.869Z,98599.36
2023-03-15T18:22:53.707Z,98596.19
2023-03-15T18:33:19.480Z,98601.44
2023-03-15T18:43:49.696Z,98606.71
2023-03-15T18:54:15.168Z,98608.14
2023-03-15T19:04:40.844Z,98614.60
2023-03-15T19:15:07.060Z,98616.27
2023-03-15T19:25:32.920Z,98625.89
2023-03-15T19:35:58.947Z,98637.51
2023-03-15T19:46:24.717Z,98652.92
2023-03-15T19:56:50.211Z,98676.07
2023-03-15T20:07:15.778Z,98690.97
2023-03-15T20:17:42.708Z,98695.23
2023-03-15T20:28:08.610Z,98704.04
2023-03-15T20:38:37.242Z,98714.39
2023-03-15T20:49:03.186Z,98721.78
2023-03-15T20:59:28.755Z,98723.06
2023-03-15T21:09:54.741Z,98729.40
2023-03-15T21:20:20.739Z,98742.27
2023-03-15T21:30:46.711Z,98758.29
2023-03-15T21:41:12.816Z,98762.94
2023-03-15T21:51:38.910Z,98772.14
2023-03-15T22:02:04.658Z,98779.28
2023-03-15T22:12:31.168Z,98789.17
2023-03-15T22:22:57.042Z,98799.27
2023-03-15T22:33:23.756Z,98809.21
2023-03-15T22:43:49.288Z,98817.30
2023-03-15T22:54:14.836Z,98828.45
2023-03-15T23:04:41.183Z,98839.76
2023-03-15T23:15:08.015Z,98846.48
2023-03-15T23:25:36.016Z,98852.27
2023-03-15T23:36:01.957Z,98862.99
2023-03-15T23:46:28.358Z,98873.84
2023-03-15T23:56:54.108Z,98882.00
